sensor_id;sensor_type;location;lat;lon;timestamp;P1;durP1;ratioP1;P2;durP2;ratioP2
15385;SDS011;7791;47.246;9.648;2023-08-06T00:00:49;5.70;;;2.63;;
15385;SDS011;7791;47.246;9.648;2023-08-06T00:03:24;4.17;;;2.73;;
15385;SDS011;7791;47.246;9.648;2023-08-06T00:05:49;4.53;;;2.50;;
15385;SDS011;7791;47.246;9.648;2023-08-06T00:13:48;5.77;;;3.27;;
15385;SDS011;7791;47.246;9.648;2023-08-06T00:19:31;6.20;;;2.50;;
15385;SDS011;7791;47.246;9.648;2023-08-06T00:22:16;3.27;;;2.30;;
15385;SDS011;7791;47.246;9.648;2023-08-06T00:27:53;3.43;;;2.43;;
15385;SDS011;7791;47.246;9.648;2023-08-06T00:30:40;4.93;;;2.77;;
15385;SDS011;7791;47.246;9.648;2023-08-06T00:36:08;5.33;;;2.77;;
15385;SDS011;7791;47.246;9.648;2023-08-06T00:41:41;5.30;;;2.70;;
15385;SDS011;7791;47.246;9.648;2023-08-06T00:44:34;4.30;;;2.50;;
15385;SDS011;7791;47.246;9.648;2023-08-06T00:47:26;3.63;;;2.40;;
15385;SDS011;7791;47.246;9.648;2023-08-06T00:50:07;5.97;;;3.07;;
15385;SDS011;7791;47.246;9.648;2023-08-06T00:52:47;4.47;;;3.00;;
15385;SDS011;7791;47.246;9.648;2023-08-06T00:55:35;4.50;;;2.70;;
15385;SDS011;7791;47.246;9.648;2023-08-06T00:58:22;4.00;;;2.83;;
15385;SDS011;7791;47.246;9.648;2023-08-06T01:01:08;2.87;;;2.30;;
15385;SDS011;7791;47.246;9.648;2023-08-06T01:03:52;4.00;;;2.87;;
15385;SDS011;7791;47.246;9.648;2023-08-06T01:06:33;5.20;;;2.73;;
15385;SDS011;7791;47.246;9.648;2023-08-06T01:09:17;4.33;;;2.77;;
15385;SDS011;7791;47.246;9.648;2023-08-06T01:12:02;5.20;;;2.77;;
15385;SDS011;7791;47.246;9.648;2023-08-06T01:14:58;5.23;;;3.07;;
15385;SDS011;7791;47.246;9.648;2023-08-06T01:17:49;3.53;;;2.70;;
15385;SDS011;7791;47.246;9.648;2023-08-06T01:20:21;4.83;;;3.00;;
15385;SDS011;7791;47.246;9.648;2023-08-06T01:23:00;4.73;;;2.90;;
15385;SDS011;7791;47.246;9.648;2023-08-06T01:25:49;4.77;;;2.70;;
15385;SDS011;7791;47.246;9.648;2023-08-06T01:28:32;4.33;;;2.70;;
15385;SDS011;7791;47.246;9.648;2023-08-06T01:31:10;3.60;;;2.50;;
15385;SDS011;7791;47.246;9.648;2023-08-06T01:33:48;4.53;;;2.50;;
15385;SDS011;7791;47.246;9.648;2023-08-06T01:36:26;4.77;;;2.90;;
15385;SDS011;7791;47.246;9.648;2023-08-06T01:39:04;4.10;;;2.40;;
15385;SDS011;7791;47.246;9.648;2023-08-06T01:41:39;3.37;;;2.40;;
15385;SDS011;7791;47.246;9.648;2023-08-06T01:44:09;6.23;;;2.70;;
15385;SDS011;7791;47.246;9.648;2023-08-06T01:46:48;3.37;;;2.50;;
15385;SDS011;7791;47.246;9.648;2023-08-06T01:49:28;4.00;;;2.20;;
15385;SDS011;7791;47.246;9.648;2023-08-06T01:52:11;3.53;;;2.40;;
15385;SDS011;7791;47.246;9.648;2023-08-06T01:54:41;2.83;;;2.30;;
15385;SDS011;7791;47.246;9.648;2023-08-06T01:57:17;3.47;;;2.67;;
15385;SDS011;7791;47.246;9.648;2023-08-06T01:59:53;2.90;;;2.23;;
15385;SDS011;7791;47.246;9.648;2023-08-06T02:02:30;4.40;;;2.77;;
15385;SDS011;7791;47.246;9.648;2023-08-06T02:05:04;3.23;;;2.20;;
15385;SDS011;7791;47.246;9.648;2023-08-06T02:07:45;3.37;;;2.10;;
15385;SDS011;7791;47.246;9.648;2023-08-06T02:10:25;3.67;;;2.10;;
15385;SDS011;7791;47.246;9.648;2023-08-06T02:13:06;3.47;;;2.30;;
15385;SDS011;7791;47.246;9.648;2023-08-06T02:15:55;3.47;;;2.13;;
15385;SDS011;7791;47.246;9.648;2023-08-06T02:18:30;3.53;;;2.20;;
15385;SDS011;7791;47.246;9.648;2023-08-06T02:21:19;2.70;;;2.20;;
15385;SDS011;7791;47.246;9.648;2023-08-06T02:24:11;3.17;;;2.17;;
15385;SDS011;7791;47.246;9.648;2023-08-06T02:27:05;3.37;;;2.10;;
15385;SDS011;7791;47.246;9.648;2023-08-06T02:29:50;3.23;;;2.30;;
15385;SDS011;7791;47.246;9.648;2023-08-06T02:32:28;2.93;;;1.87;;
15385;SDS011;7791;47.246;9.648;2023-08-06T02:35:05;2.83;;;1.80;;
15385;SDS011;7791;47.246;9.648;2023-08-06T02:37:35;3.80;;;1.97;;
15385;SDS011;7791;47.246;9.648;2023-08-06T02:40:17;2.63;;;1.90;;
15385;SDS011;7791;47.246;9.648;2023-08-06T02:42:53;5.37;;;1.80;;
15385;SDS011;7791;47.246;9.648;2023-08-06T02:45:32;2.60;;;1.97;;
15385;SDS011;7791;47.246;9.648;2023-08-06T02:48:17;2.37;;;1.90;;
15385;SDS011;7791;47.246;9.648;2023-08-06T02:50:53;4.80;;;2.27;;
15385;SDS011;7791;47.246;9.648;2023-08-06T02:53:40;4.87;;;2.27;;
15385;SDS011;7791;47.246;9.648;2023-08-06T03:05:02;3.57;;;1.90;;
15385;SDS011;7791;47.246;9.648;2023-08-06T03:07:56;5.33;;;1.90;;
15385;SDS011;7791;47.246;9.648;2023-08-06T03:10:45;3.03;;;2.00;;
15385;SDS011;7791;47.246;9.648;2023-08-06T03:16:27;2.97;;;2.00;;
15385;SDS011;7791;47.246;9.648;2023-08-06T03:19:20;3.50;;;2.10;;
15385;SDS011;7791;47.246;9.648;2023-08-06T03:24:57;3.93;;;2.40;;
15385;SDS011;7791;47.246;9.648;2023-08-06T03:27:37;4.63;;;2.33;;
15385;SDS011;7791;47.246;9.648;2023-08-06T03:30:09;4.53;;;1.90;;
15385;SDS011;7791;47.246;9.648;2023-08-06T03:32:47;3.63;;;2.40;;
15385;SDS011;7791;47.246;9.648;2023-08-06T03:35:22;3.83;;;2.60;;
15385;SDS011;7791;47.246;9.648;2023-08-06T03:38:03;5.37;;;2.60;;
15385;SDS011;7791;47.246;9.648;2023-08-06T03:40:38;4.60;;;2.50;;
15385;SDS011;7791;47.246;9.648;2023-08-06T03:43:23;4.40;;;3.00;;
15385;SDS011;7791;47.246;9.648;2023-08-06T03:45:52;4.43;;;3.10;;
15385;SDS011;7791;47.246;9.648;2023-08-06T03:48:30;4.87;;;2.60;;
15385;SDS011;7791;47.246;9.648;2023-08-06T03:51:15;6.90;;;4.50;;
15385;SDS011;7791;47.246;9.648;2023-08-06T03:54:00;6.97;;;4.13;;
15385;SDS011;7791;47.246;9.648;2023-08-06T03:56:45;6.47;;;3.53;;
15385;SDS011;7791;47.246;9.648;2023-08-06T03:59:30;5.13;;;3.47;;
15385;SDS011;7791;47.246;9.648;2023-08-06T04:01:57;5.67;;;3.17;;
15385;SDS011;7791;47.246;9.648;2023-08-06T04:04:24;4.07;;;2.67;;
15385;SDS011;7791;47.246;9.648;2023-08-06T04:06:57;5.90;;;2.70;;
15385;SDS011;7791;47.246;9.648;2023-08-06T04:12:33;3.40;;;2.50;;
15385;SDS011;7791;47.246;9.648;2023-08-06T04:15:21;3.50;;;2.40;;
15385;SDS011;7791;47.246;9.648;2023-08-06T04:18:01;3.17;;;2.10;;
15385;SDS011;7791;47.246;9.648;2023-08-06T04:23:25;4.07;;;2.30;;
15385;SDS011;7791;47.246;9.648;2023-08-06T04:25:58;3.60;;;2.40;;
15385;SDS011;7791;47.246;9.648;2023-08-06T04:28:30;4.17;;;2.67;;
15385;SDS011;7791;47.246;9.648;2023-08-06T04:31:23;4.27;;;2.30;;
15385;SDS011;7791;47.246;9.648;2023-08-06T04:34:05;2.73;;;2.20;;
15385;SDS011;7791;47.246;9.648;2023-08-06T04:36:52;3.30;;;2.40;;
15385;SDS011;7791;47.246;9.648;2023-08-06T04:39:39;4.03;;;2.40;;
15385;SDS011;7791;47.246;9.648;2023-08-06T04:42:36;2.77;;;1.93;;
15385;SDS011;7791;47.246;9.648;2023-08-06T04:45:11;4.27;;;2.50;;
15385;SDS011;7791;47.246;9.648;2023-08-06T04:48:05;4.40;;;2.40;;
15385;SDS011;7791;47.246;9.648;2023-08-06T04:50:41;4.73;;;2.60;;
15385;SDS011;7791;47.246;9.648;2023-08-06T04:56:22;2.90;;;2.43;;
15385;SDS011;7791;47.246;9.648;2023-08-06T04:59:08;4.13;;;2.17;;
15385;SDS011;7791;47.246;9.648;2023-08-06T05:01:49;2.90;;;2.00;;
15385;SDS011;7791;47.246;9.648;2023-08-06T05:04:22;2.20;;;1.80;;
15385;SDS011;7791;47.246;9.648;2023-08-06T05:06:58;2.87;;;2.00;;
15385;SDS011;7791;47.246;9.648;2023-08-06T05:09:56;2.93;;;2.30;;
15385;SDS011;7791;47.246;9.648;2023-08-06T05:12:25;3.20;;;1.90;;
15385;SDS011;7791;47.246;9.648;2023-08-06T05:18:05;3.17;;;2.20;;
15385;SDS011;7791;47.246;9.648;2023-08-06T05:20:52;5.57;;;2.40;;
15385;SDS011;7791;47.246;9.648;2023-08-06T05:23:29;4.10;;;1.90;;
15385;SDS011;7791;47.246;9.648;2023-08-06T05:26:16;3.27;;;2.20;;
15385;SDS011;7791;47.246;9.648;2023-08-06T05:28:51;3.83;;;2.27;;
15385;SDS011;7791;47.246;9.648;2023-08-06T05:31:21;2.63;;;1.77;;
15385;SDS011;7791;47.246;9.648;2023-08-06T05:33:52;4.17;;;2.13;;
15385;SDS011;7791;47.246;9.648;2023-08-06T05:36:34;2.30;;;1.80;;
15385;SDS011;7791;47.246;9.648;2023-08-06T05:45:02;2.03;;;1.47;;
15385;SDS011;7791;47.246;9.648;2023-08-06T05:47:51;2.30;;;1.50;;
15385;SDS011;7791;47.246;9.648;2023-08-06T05:50:24;4.33;;;2.00;;
15385;SDS011;7791;47.246;9.648;2023-08-06T05:53:24;2.20;;;1.73;;
15385;SDS011;7791;47.246;9.648;2023-08-06T05:58:51;2.87;;;1.73;;
15385;SDS011;7791;47.246;9.648;2023-08-06T06:04:13;2.53;;;1.77;;
15385;SDS011;7791;47.246;9.648;2023-08-06T06:06:46;3.53;;;1.97;;
15385;SDS011;7791;47.246;9.648;2023-08-06T06:09:18;2.30;;;1.47;;
15385;SDS011;7791;47.246;9.648;2023-08-06T06:11:48;1.93;;;1.60;;
15385;SDS011;7791;47.246;9.648;2023-08-06T06:14:27;2.77;;;1.50;;
15385;SDS011;7791;47.246;9.648;2023-08-06T06:17:04;2.97;;;1.90;;
15385;SDS011;7791;47.246;9.648;2023-08-06T06:23:01;3.07;;;1.63;;
15385;SDS011;7791;47.246;9.648;2023-08-06T06:25:47;2.80;;;1.63;;
15385;SDS011;7791;47.246;9.648;2023-08-06T06:28:19;2.80;;;1.73;;
15385;SDS011;7791;47.246;9.648;2023-08-06T06:30:59;2.00;;;1.70;;
15385;SDS011;7791;47.246;9.648;2023-08-06T06:33:38;3.83;;;1.73;;
15385;SDS011;7791;47.246;9.648;2023-08-06T06:36:28;4.27;;;1.67;;
15385;SDS011;7791;47.246;9.648;2023-08-06T06:42:07;2.83;;;1.60;;
15385;SDS011;7791;47.246;9.648;2023-08-06T06:44:51;2.93;;;1.50;;
15385;SDS011;7791;47.246;9.648;2023-08-06T06:47:28;4.93;;;1.57;;
15385;SDS011;7791;47.246;9.648;2023-08-06T06:50:06;2.50;;;1.60;;
15385;SDS011;7791;47.246;9.648;2023-08-06T06:52:41;3.63;;;1.50;;
15385;SDS011;7791;47.246;9.648;2023-08-06T06:55:22;3.60;;;1.60;;
15385;SDS011;7791;47.246;9.648;2023-08-06T06:58:03;2.43;;;1.80;;
15385;SDS011;7791;47.246;9.648;2023-08-06T07:00:37;2.20;;;1.60;;
15385;SDS011;7791;47.246;9.648;2023-08-06T07:03:21;1.97;;;1.30;;
15385;SDS011;7791;47.246;9.648;2023-08-06T07:08:43;4.90;;;1.23;;
15385;SDS011;7791;47.246;9.648;2023-08-06T07:14:10;3.87;;;1.40;;
15385;SDS011;7791;47.246;9.648;2023-08-06T07:16:58;2.50;;;1.43;;
15385;SDS011;7791;47.246;9.648;2023-08-06T07:22:15;2.53;;;1.60;;
15385;SDS011;7791;47.246;9.648;2023-08-06T07:27:36;4.03;;;1.50;;
15385;SDS011;7791;47.246;9.648;2023-08-06T07:30:21;1.60;;;1.20;;
15385;SDS011;7791;47.246;9.648;2023-08-06T07:33:15;2.00;;;1.37;;
15385;SDS011;7791;47.246;9.648;2023-08-06T07:38:54;2.07;;;1.00;;
15385;SDS011;7791;47.246;9.648;2023-08-06T07:41:49;2.03;;;1.00;;
15385;SDS011;7791;47.246;9.648;2023-08-06T07:44:34;4.23;;;1.10;;
15385;SDS011;7791;47.246;9.648;2023-08-06T07:47:06;1.80;;;0.80;;
15385;SDS011;7791;47.246;9.648;2023-08-06T07:49:36;3.77;;;1.07;;
15385;SDS011;7791;47.246;9.648;2023-08-06T07:52:17;2.10;;;0.80;;
15385;SDS011;7791;47.246;9.648;2023-08-06T07:55:03;1.43;;;0.77;;
15385;SDS011;7791;47.246;9.648;2023-08-06T07:57:40;1.30;;;0.80;;
15385;SDS011;7791;47.246;9.648;2023-08-06T08:00:08;1.03;;;0.60;;
15385;SDS011;7791;47.246;9.648;2023-08-06T08:05:47;1.80;;;0.70;;
15385;SDS011;7791;47.246;9.648;2023-08-06T08:08:30;1.80;;;0.63;;
15385;SDS011;7791;47.246;9.648;2023-08-06T08:11:11;1.63;;;0.50;;
15385;SDS011;7791;47.246;9.648;2023-08-06T08:13:53;1.43;;;0.50;;
15385;SDS011;7791;47.246;9.648;2023-08-06T08:16:29;0.83;;;0.40;;
15385;SDS011;7791;47.246;9.648;2023-08-06T08:19:03;0.97;;;0.60;;
15385;SDS011;7791;47.246;9.648;2023-08-06T08:21:55;1.10;;;0.60;;
15385;SDS011;7791;47.246;9.648;2023-08-06T08:27:32;3.70;;;0.60;;
15385;SDS011;7791;47.246;9.648;2023-08-06T08:29:58;4.07;;;0.60;;
15385;SDS011;7791;47.246;9.648;2023-08-06T08:32:57;3.40;;;0.50;;
15385;SDS011;7791;47.246;9.648;2023-08-06T08:35:23;0.57;;;0.43;;
15385;SDS011;7791;47.246;9.648;2023-08-06T08:38:00;0.93;;;0.40;;
15385;SDS011;7791;47.246;9.648;2023-08-06T08:40:33;0.97;;;0.57;;
15385;SDS011;7791;47.246;9.648;2023-08-06T08:43:15;1.67;;;0.57;;
15385;SDS011;7791;47.246;9.648;2023-08-06T08:45:49;2.27;;;0.60;;
15385;SDS011;7791;47.246;9.648;2023-08-06T08:48:21;0.87;;;0.50;;
15385;SDS011;7791;47.246;9.648;2023-08-06T08:50:54;3.03;;;0.53;;
15385;SDS011;7791;47.246;9.648;2023-08-06T08:53:54;2.93;;;0.50;;
15385;SDS011;7791;47.246;9.648;2023-08-06T08:59:22;1.40;;;0.50;;
15385;SDS011;7791;47.246;9.648;2023-08-06T09:02:05;1.00;;;0.50;;
15385;SDS011;7791;47.246;9.648;2023-08-06T09:07:32;1.70;;;0.50;;
15385;SDS011;7791;47.246;9.648;2023-08-06T09:10:12;1.40;;;0.47;;
15385;SDS011;7791;47.246;9.648;2023-08-06T09:12:55;1.43;;;0.70;;
15385;SDS011;7791;47.246;9.648;2023-08-06T09:15:42;0.70;;;0.30;;
15385;SDS011;7791;47.246;9.648;2023-08-06T09:21:15;1.40;;;0.50;;
15385;SDS011;7791;47.246;9.648;2023-08-06T09:24:13;0.50;;;0.30;;
15385;SDS011;7791;47.246;9.648;2023-08-06T09:27:13;0.60;;;0.30;;
15385;SDS011;7791;47.246;9.648;2023-08-06T09:29:46;0.20;;;0.10;;
15385;SDS011;7791;47.246;9.648;2023-08-06T09:32:23;0.23;;;0.10;;
15385;SDS011;7791;47.246;9.648;2023-08-06T09:35:16;0.23;;;0.10;;
15385;SDS011;7791;47.246;9.648;2023-08-06T09:37:56;1.23;;;0.10;;
15385;SDS011;7791;47.246;9.648;2023-08-06T09:40:40;0.77;;;0.20;;
15385;SDS011;7791;47.246;9.648;2023-08-06T09:43:26;0.10;;;0.03;;
15385;SDS011;7791;47.246;9.648;2023-08-06T09:49:19;0.00;;;0.00;;
15385;SDS011;7791;47.246;9.648;2023-08-06T09:52:07;0.40;;;0.20;;
15385;SDS011;7791;47.246;9.648;2023-08-06T09:54:47;0.10;;;0.10;;
15385;SDS011;7791;47.246;9.648;2023-08-06T09:57:29;0.73;;;0.40;;
15385;SDS011;7791;47.246;9.648;2023-08-06T10:00:30;1.23;;;0.10;;
15385;SDS011;7791;47.246;9.648;2023-08-06T10:03:02;0.23;;;0.10;;
15385;SDS011;7791;47.246;9.648;2023-08-06T10:05:45;0.60;;;0.13;;
15385;SDS011;7791;47.246;9.648;2023-08-06T10:08:20;0.27;;;0.10;;
15385;SDS011;7791;47.246;9.648;2023-08-06T10:10:54;0.00;;;0.00;;
15385;SDS011;7791;47.246;9.648;2023-08-06T10:13:33;0.30;;;0.13;;
15385;SDS011;7791;47.246;9.648;2023-08-06T10:16:05;0.27;;;0.20;;
15385;SDS011;7791;47.246;9.648;2023-08-06T10:18:31;0.17;;;0.17;;
15385;SDS011;7791;47.246;9.648;2023-08-06T10:21:00;0.37;;;0.20;;
15385;SDS011;7791;47.246;9.648;2023-08-06T10:23:55;0.33;;;0.00;;
15385;SDS011;7791;47.246;9.648;2023-08-06T10:26:44;1.10;;;0.10;;
15385;SDS011;7791;47.246;9.648;2023-08-06T10:32:09;0.70;;;0.17;;
15385;SDS011;7791;47.246;9.648;2023-08-06T10:38:03;0.20;;;0.20;;
15385;SDS011;7791;47.246;9.648;2023-08-06T10:40:52;0.10;;;0.10;;
15385;SDS011;7791;47.246;9.648;2023-08-06T10:46:39;0.77;;;0.17;;
15385;SDS011;7791;47.246;9.648;2023-08-06T10:49:26;0.10;;;0.10;;
15385;SDS011;7791;47.246;9.648;2023-08-06T10:52:05;0.40;;;0.10;;
15385;SDS011;7791;47.246;9.648;2023-08-06T10:54:55;0.47;;;0.10;;
15385;SDS011;7791;47.246;9.648;2023-08-06T10:57:25;3.30;;;0.27;;
15385;SDS011;7791;47.246;9.648;2023-08-06T11:00:00;0.53;;;0.20;;
15385;SDS011;7791;47.246;9.648;2023-08-06T11:02:41;0.50;;;0.10;;
15385;SDS011;7791;47.246;9.648;2023-08-06T11:05:14;0.57;;;0.10;;
15385;SDS011;7791;47.246;9.648;2023-08-06T11:07:54;0.63;;;0.27;;
15385;SDS011;7791;47.246;9.648;2023-08-06T11:10:47;0.70;;;0.10;;
15385;SDS011;7791;47.246;9.648;2023-08-06T11:16:22;0.20;;;0.10;;
15385;SDS011;7791;47.246;9.648;2023-08-06T11:18:56;0.33;;;0.10;;
15385;SDS011;7791;47.246;9.648;2023-08-06T11:24:14;0.17;;;0.10;;
15385;SDS011;7791;47.246;9.648;2023-08-06T11:32:45;0.37;;;0.20;;
15385;SDS011;7791;47.246;9.648;2023-08-06T11:35:22;0.30;;;0.20;;
15385;SDS011;7791;47.246;9.648;2023-08-06T11:40:56;0.30;;;0.30;;
15385;SDS011;7791;47.246;9.648;2023-08-06T11:43:31;0.20;;;0.20;;
15385;SDS011;7791;47.246;9.648;2023-08-06T11:49:25;0.10;;;0.00;;
15385;SDS011;7791;47.246;9.648;2023-08-06T11:52:26;0.40;;;0.10;;
15385;SDS011;7791;47.246;9.648;2023-08-06T11:55:03;0.30;;;0.10;;
15385;SDS011;7791;47.246;9.648;2023-08-06T11:57:52;0.43;;;0.10;;
15385;SDS011;7791;47.246;9.648;2023-08-06T12:03:25;1.00;;;0.20;;
15385;SDS011;7791;47.246;9.648;2023-08-06T12:09:08;0.00;;;0.00;;
15385;SDS011;7791;47.246;9.648;2023-08-06T12:12:03;0.37;;;0.17;;
15385;SDS011;7791;47.246;9.648;2023-08-06T12:14:43;0.63;;;0.30;;
15385;SDS011;7791;47.246;9.648;2023-08-06T12:17:23;0.33;;;0.20;;
15385;SDS011;7791;47.246;9.648;2023-08-06T12:19:53;0.73;;;0.00;;
15385;SDS011;7791;47.246;9.648;2023-08-06T12:22:46;0.10;;;0.10;;
15385;SDS011;7791;47.246;9.648;2023-08-06T12:25:36;1.53;;;0.10;;
15385;SDS011;7791;47.246;9.648;2023-08-06T12:28:29;0.23;;;0.10;;
15385;SDS011;7791;47.246;9.648;2023-08-06T12:31:04;0.03;;;0.03;;
15385;SDS011;7791;47.246;9.648;2023-08-06T12:33:35;0.13;;;0.10;;
15385;SDS011;7791;47.246;9.648;2023-08-06T12:36:30;0.47;;;0.20;;
15385;SDS011;7791;47.246;9.648;2023-08-06T12:39:16;0.10;;;0.10;;
15385;SDS011;7791;47.246;9.648;2023-08-06T12:42:05;0.30;;;0.30;;
15385;SDS011;7791;47.246;9.648;2023-08-06T12:47:39;1.03;;;0.37;;
15385;SDS011;7791;47.246;9.648;2023-08-06T12:50:09;0.10;;;0.10;;
15385;SDS011;7791;47.246;9.648;2023-08-06T12:52:39;0.20;;;0.20;;
15385;SDS011;7791;47.246;9.648;2023-08-06T12:55:19;0.10;;;0.10;;
15385;SDS011;7791;47.246;9.648;2023-08-06T12:57:54;0.57;;;0.10;;
15385;SDS011;7791;47.246;9.648;2023-08-06T13:00:36;0.47;;;0.20;;
15385;SDS011;7791;47.246;9.648;2023-08-06T13:03:15;0.90;;;0.10;;
15385;SDS011;7791;47.246;9.648;2023-08-06T13:06:00;0.10;;;0.10;;
15385;SDS011;7791;47.246;9.648;2023-08-06T13:08:47;0.47;;;0.37;;
15385;SDS011;7791;47.246;9.648;2023-08-06T13:14:13;0.60;;;0.30;;
15385;SDS011;7791;47.246;9.648;2023-08-06T13:16:53;0.50;;;0.20;;
15385;SDS011;7791;47.246;9.648;2023-08-06T13:22:36;1.03;;;0.20;;
15385;SDS011;7791;47.246;9.648;2023-08-06T13:25:14;0.40;;;0.20;;
15385;SDS011;7791;47.246;9.648;2023-08-06T13:28:01;0.90;;;0.10;;
15385;SDS011;7791;47.246;9.648;2023-08-06T13:30:47;0.20;;;0.10;;
15385;SDS011;7791;47.246;9.648;2023-08-06T13:33:39;0.10;;;0.10;;
15385;SDS011;7791;47.246;9.648;2023-08-06T13:36:21;0.60;;;0.17;;
15385;SDS011;7791;47.246;9.648;2023-08-06T13:39:09;0.37;;;0.20;;
15385;SDS011;7791;47.246;9.648;2023-08-06T13:42:05;0.20;;;0.10;;
15385;SDS011;7791;47.246;9.648;2023-08-06T13:44:43;0.20;;;0.20;;
15385;SDS011;7791;47.246;9.648;2023-08-06T13:47:16;0.30;;;0.27;;
15385;SDS011;7791;47.246;9.648;2023-08-06T13:49:57;0.67;;;0.30;;
15385;SDS011;7791;47.246;9.648;2023-08-06T13:52:32;0.20;;;0.20;;
15385;SDS011;7791;47.246;9.648;2023-08-06T13:55:02;1.30;;;0.30;;
15385;SDS011;7791;47.246;9.648;2023-08-06T14:00:35;2.23;;;0.20;;
15385;SDS011;7791;47.246;9.648;2023-08-06T14:03:07;0.20;;;0.20;;
15385;SDS011;7791;47.246;9.648;2023-08-06T14:05:52;0.63;;;0.33;;
15385;SDS011;7791;47.246;9.648;2023-08-06T14:08:43;0.23;;;0.13;;
15385;SDS011;7791;47.246;9.648;2023-08-06T14:11:18;0.57;;;0.30;;
15385;SDS011;7791;47.246;9.648;2023-08-06T14:13:56;0.17;;;0.10;;
15385;SDS011;7791;47.246;9.648;2023-08-06T14:16:48;0.10;;;0.10;;
15385;SDS011;7791;47.246;9.648;2023-08-06T14:19:19;0.30;;;0.20;;
15385;SDS011;7791;47.246;9.648;2023-08-06T14:21:50;1.20;;;0.17;;
15385;SDS011;7791;47.246;9.648;2023-08-06T14:24:40;1.10;;;0.43;;
15385;SDS011;7791;47.246;9.648;2023-08-06T14:27:18;0.67;;;0.20;;
15385;SDS011;7791;47.246;9.648;2023-08-06T14:30:04;0.20;;;0.20;;
15385;SDS011;7791;47.246;9.648;2023-08-06T14:32:45;0.40;;;0.27;;
15385;SDS011;7791;47.246;9.648;2023-08-06T14:35:17;0.50;;;0.20;;
15385;SDS011;7791;47.246;9.648;2023-08-06T14:38:01;0.37;;;0.20;;
15385;SDS011;7791;47.246;9.648;2023-08-06T14:40:46;0.10;;;0.10;;
15385;SDS011;7791;47.246;9.648;2023-08-06T14:43:24;0.27;;;0.10;;
15385;SDS011;7791;47.246;9.648;2023-08-06T14:46:12;0.10;;;0.10;;
15385;SDS011;7791;47.246;9.648;2023-08-06T14:49:00;0.77;;;0.50;;
15385;SDS011;7791;47.246;9.648;2023-08-06T14:54:21;0.40;;;0.07;;
15385;SDS011;7791;47.246;9.648;2023-08-06T14:57:03;0.33;;;0.27;;
15385;SDS011;7791;47.246;9.648;2023-08-06T14:59:43;0.10;;;0.10;;
15385;SDS011;7791;47.246;9.648;2023-08-06T15:02:22;0.00;;;0.00;;
15385;SDS011;7791;47.246;9.648;2023-08-06T15:05:01;0.00;;;0.00;;
15385;SDS011;7791;47.246;9.648;2023-08-06T15:07:37;0.10;;;0.10;;
15385;SDS011;7791;47.246;9.648;2023-08-06T15:10:16;0.30;;;0.10;;
15385;SDS011;7791;47.246;9.648;2023-08-06T15:12:58;0.20;;;0.13;;
15385;SDS011;7791;47.246;9.648;2023-08-06T15:15:30;0.43;;;0.20;;
15385;SDS011;7791;47.246;9.648;2023-08-06T15:18:06;0.40;;;0.30;;
15385;SDS011;7791;47.246;9.648;2023-08-06T15:23:38;0.10;;;0.10;;
15385;SDS011;7791;47.246;9.648;2023-08-06T15:26:20;1.03;;;0.27;;
15385;SDS011;7791;47.246;9.648;2023-08-06T15:29:03;0.50;;;0.20;;
15385;SDS011;7791;47.246;9.648;2023-08-06T15:34:30;0.30;;;0.20;;
15385;SDS011;7791;47.246;9.648;2023-08-06T15:42:48;0.20;;;0.20;;
15385;SDS011;7791;47.246;9.648;2023-08-06T15:45:20;0.10;;;0.10;;
15385;SDS011;7791;47.246;9.648;2023-08-06T15:47:55;0.17;;;0.13;;
15385;SDS011;7791;47.246;9.648;2023-08-06T15:50:35;0.10;;;0.10;;
15385;SDS011;7791;47.246;9.648;2023-08-06T15:53:17;0.10;;;0.10;;
15385;SDS011;7791;47.246;9.648;2023-08-06T15:55:52;0.23;;;0.20;;
15385;SDS011;7791;47.246;9.648;2023-08-06T15:58:41;0.20;;;0.20;;
15385;SDS011;7791;47.246;9.648;2023-08-06T16:01:14;1.07;;;0.30;;
15385;SDS011;7791;47.246;9.648;2023-08-06T16:03:58;0.70;;;0.40;;
15385;SDS011;7791;47.246;9.648;2023-08-06T16:06:39;0.97;;;0.30;;
15385;SDS011;7791;47.246;9.648;2023-08-06T16:09:21;1.97;;;0.40;;
15385;SDS011;7791;47.246;9.648;2023-08-06T16:11:52;0.33;;;0.30;;
15385;SDS011;7791;47.246;9.648;2023-08-06T16:14:37;0.20;;;0.20;;
15385;SDS011;7791;47.246;9.648;2023-08-06T16:17:12;0.43;;;0.20;;
15385;SDS011;7791;47.246;9.648;2023-08-06T16:19:42;0.30;;;0.20;;
15385;SDS011;7791;47.246;9.648;2023-08-06T16:22:15;0.77;;;0.53;;
15385;SDS011;7791;47.246;9.648;2023-08-06T16:24:55;0.67;;;0.50;;
15385;SDS011;7791;47.246;9.648;2023-08-06T16:27:28;0.70;;;0.30;;
15385;SDS011;7791;47.246;9.648;2023-08-06T16:30:11;0.37;;;0.37;;
15385;SDS011;7791;47.246;9.648;2023-08-06T16:32:48;0.43;;;0.30;;
15385;SDS011;7791;47.246;9.648;2023-08-06T16:35:29;0.40;;;0.40;;
15385;SDS011;7791;47.246;9.648;2023-08-06T16:38:10;0.53;;;0.30;;
15385;SDS011;7791;47.246;9.648;2023-08-06T16:40:51;1.40;;;0.30;;
15385;SDS011;7791;47.246;9.648;2023-08-06T16:43:27;0.30;;;0.30;;
15385;SDS011;7791;47.246;9.648;2023-08-06T16:46:19;1.60;;;0.57;;
15385;SDS011;7791;47.246;9.648;2023-08-06T16:48:50;0.67;;;0.47;;
15385;SDS011;7791;47.246;9.648;2023-08-06T16:51:41;0.40;;;0.27;;
15385;SDS011;7791;47.246;9.648;2023-08-06T16:54:20;0.40;;;0.40;;
15385;SDS011;7791;47.246;9.648;2023-08-06T16:57:06;0.60;;;0.50;;
15385;SDS011;7791;47.246;9.648;2023-08-06T17:02:31;0.40;;;0.40;;
15385;SDS011;7791;47.246;9.648;2023-08-06T17:05:26;0.40;;;0.40;;
15385;SDS011;7791;47.246;9.648;2023-08-06T17:08:04;1.63;;;0.40;;
15385;SDS011;7791;47.246;9.648;2023-08-06T17:16:26;0.50;;;0.40;;
15385;SDS011;7791;47.246;9.648;2023-08-06T17:19:12;0.73;;;0.43;;
15385;SDS011;7791;47.246;9.648;2023-08-06T17:21:48;1.10;;;0.50;;
15385;SDS011;7791;47.246;9.648;2023-08-06T17:24:31;0.50;;;0.40;;
15385;SDS011;7791;47.246;9.648;2023-08-06T17:30:01;0.47;;;0.40;;
15385;SDS011;7791;47.246;9.648;2023-08-06T17:32:58;0.70;;;0.50;;
15385;SDS011;7791;47.246;9.648;2023-08-06T17:35:39;0.67;;;0.40;;
15385;SDS011;7791;47.246;9.648;2023-08-06T17:41:17;0.80;;;0.60;;
15385;SDS011;7791;47.246;9.648;2023-08-06T17:43:45;0.40;;;0.33;;
15385;SDS011;7791;47.246;9.648;2023-08-06T17:46:27;2.00;;;0.50;;
15385;SDS011;7791;47.246;9.648;2023-08-06T17:49:03;1.70;;;0.50;;
15385;SDS011;7791;47.246;9.648;2023-08-06T17:51:46;0.53;;;0.30;;
15385;SDS011;7791;47.246;9.648;2023-08-06T17:54:17;0.60;;;0.50;;
15385;SDS011;7791;47.246;9.648;2023-08-06T17:56:54;0.87;;;0.57;;
15385;SDS011;7791;47.246;9.648;2023-08-06T17:59:33;1.43;;;0.60;;
15385;SDS011;7791;47.246;9.648;2023-08-06T18:02:28;4.33;;;0.60;;
15385;SDS011;7791;47.246;9.648;2023-08-06T18:11:02;1.37;;;0.60;;
15385;SDS011;7791;47.246;9.648;2023-08-06T18:13:52;0.70;;;0.50;;
15385;SDS011;7791;47.246;9.648;2023-08-06T18:19:33;0.83;;;0.73;;
15385;SDS011;7791;47.246;9.648;2023-08-06T18:22:21;1.13;;;0.70;;
15385;SDS011;7791;47.246;9.648;2023-08-06T18:25:00;2.87;;;0.63;;
15385;SDS011;7791;47.246;9.648;2023-08-06T18:27:32;3.17;;;0.90;;
15385;SDS011;7791;47.246;9.648;2023-08-06T18:30:02;2.13;;;0.63;;
15385;SDS011;7791;47.246;9.648;2023-08-06T18:32:55;1.33;;;1.07;;
15385;SDS011;7791;47.246;9.648;2023-08-06T18:35:25;1.60;;;0.90;;
15385;SDS011;7791;47.246;9.648;2023-08-06T18:38:13;0.70;;;0.60;;
15385;SDS011;7791;47.246;9.648;2023-08-06T18:41:02;2.20;;;0.70;;
15385;SDS011;7791;47.246;9.648;2023-08-06T18:43:52;1.07;;;0.77;;
15385;SDS011;7791;47.246;9.648;2023-08-06T18:46:40;1.77;;;0.80;;
15385;SDS011;7791;47.246;9.648;2023-08-06T18:49:22;1.63;;;0.90;;
15385;SDS011;7791;47.246;9.648;2023-08-06T18:52:07;2.77;;;1.13;;
15385;SDS011;7791;47.246;9.648;2023-08-06T18:54:37;1.20;;;0.90;;
15385;SDS011;7791;47.246;9.648;2023-08-06T18:57:23;1.10;;;0.80;;
15385;SDS011;7791;47.246;9.648;2023-08-06T19:00:35;1.93;;;0.90;;
15385;SDS011;7791;47.246;9.648;2023-08-06T19:03:09;1.30;;;0.70;;
15385;SDS011;7791;47.246;9.648;2023-08-06T19:05:47;1.80;;;1.10;;
15385;SDS011;7791;47.246;9.648;2023-08-06T19:08:34;2.93;;;1.10;;
15385;SDS011;7791;47.246;9.648;2023-08-06T19:11:10;3.00;;;1.00;;
15385;SDS011;7791;47.246;9.648;2023-08-06T19:13:49;1.80;;;1.17;;
15385;SDS011;7791;47.246;9.648;2023-08-06T19:19:32;3.07;;;1.00;;